createdAt,value
2019-03-29T00:04:51.059Z,66.84
2019-03-29T00:09:57.161Z,66.31
2019-03-29T00:15:05.249Z,65.72
2019-03-29T00:20:11.161Z,65.63
2019-03-29T00:25:16.736Z,66.57
2019-03-29T00:30:23.553Z,66.86
2019-03-29T00:35:30.833Z,66.79
2019-03-29T00:40:39.401Z,65.84
2019-03-29T00:45:45.167Z,64.85
2019-03-29T00:50:51.654Z,64.52
2019-03-29T00:55:57.514Z,64.65
2019-03-29T01:01:03.458Z,65.87
2019-03-29T01:06:09.027Z,65.23
2019-03-29T01:11:14.954Z,64.04
2019-03-29T01:16:20.712Z,64.69
2019-03-29T01:21:27.014Z,64.55
2019-03-29T01:26:34.517Z,63.67
2019-03-29T01:31:40.240Z,63.67
2019-03-29T01:36:46.575Z,63.27
2019-03-29T01:41:53.016Z,63.85
2019-03-29T01:46:58.830Z,64.16
2019-03-29T01:52:04.480Z,63.40
2019-03-29T01:57:10.282Z,63.59
2019-03-29T02:02:16.225Z,63.12
2019-03-29T02:07:21.858Z,63.61
2019-03-29T02:12:28.966Z,63.46
2019-03-29T02:17:34.855Z,63.88
2019-03-29T02:22:40.503Z,64.25
2019-03-29T02:27:46.311Z,66.36
2019-03-29T02:32:53.473Z,64.93
2019-03-29T02:38:00.562Z,64.71
2019-03-29T02:43:06.314Z,65.20
2019-03-29T02:48:14.095Z,65.78
2019-03-29T02:53:21.777Z,66.92
2019-03-29T02:58:27.699Z,67.46
2019-03-29T03:03:34.369Z,68.60
2019-03-29T03:08:40.601Z,68.88
2019-03-29T03:13:46.475Z,69.43
2019-03-29T03:18:52.456Z,69.06
2019-03-29T03:23:58.181Z,69.39
2019-03-29T03:29:05.190Z,69.30
2019-03-29T03:34:10.956Z,68.07
2019-03-29T03:39:30.644Z,68.30
2019-03-29T03:44:24.411Z,67.55
2019-03-29T03:49:30.384Z,67.23
2019-03-29T03:54:36.163Z,67.70
2019-03-29T03:59:45.322Z,67.67
2019-03-29T04:04:51.138Z,66.12
2019-03-29T04:09:58.478Z,65.56
2019-03-29T04:15:05.267Z,65.92
2019-03-29T04:20:11.485Z,65.27
2019-03-29T04:25:18.974Z,64.29
2019-03-29T04:30:24.842Z,64.11
2019-03-29T04:35:32.093Z,64.13
2019-03-29T04:40:38.045Z,65.43
2019-03-29T04:45:44.393Z,66.09
2019-03-29T04:50:50.043Z,65.05
2019-03-29T04:55:56.613Z,64.84
2019-03-29T05:01:02.189Z,65.07
2019-03-29T05:06:07.797Z,65.29
2019-03-29T05:11:13.985Z,65.33
2019-03-29T05:16:19.926Z,66.66
2019-03-29T05:21:26.397Z,65.32
2019-03-29T05:26:32.254Z,64.77
2019-03-29T05:31:39.290Z,64.57
2019-03-29T05:36:44.880Z,64.10
2019-03-29T05:41:50.829Z,64.07
2019-03-29T05:46:56.665Z,63.63
2019-03-29T05:52:02.568Z,63.23
2019-03-29T05:57:08.141Z,62.79
2019-03-29T06:02:13.799Z,64.72
2019-03-29T06:07:19.559Z,63.52
2019-03-29T06:12:26.774Z,64.01
2019-03-29T06:17:32.438Z,63.63
2019-03-29T06:22:38.599Z,65.38
2019-03-29T06:27:44.331Z,63.66
2019-03-29T06:32:50.095Z,62.72
2019-03-29T06:37:55.839Z,65.34
2019-03-29T06:43:01.448Z,65.24
2019-03-29T06:48:08.427Z,65.27
2019-03-29T06:53:14.961Z,64.02
2019-03-29T06:58:21.434Z,64.24
2019-03-29T07:03:27.014Z,64.66
2019-03-29T07:08:32.599Z,65.63
2019-03-29T07:13:39.127Z,63.05
2019-03-29T07:18:45.104Z,64.54
2019-03-29T07:23:51.113Z,64.99
2019-03-29T07:28:58.513Z,65.36
2019-03-29T07:34:04.479Z,65.00
2019-03-29T07:39:10.450Z,65.06
2019-03-29T07:44:16.100Z,64.37
2019-03-29T07:49:22.103Z,63.72
2019-03-29T07:54:27.785Z,63.82
2019-03-29T07:59:33.537Z,63.56
2019-03-29T08:04:39.629Z,62.52
2019-03-29T08:09:45.888Z,62.84
2019-03-29T08:14:51.832Z,64.02
2019-03-29T08:20:35.589Z,65.33
2019-03-29T08:25:06.764Z,65.40
2019-03-29T08:30:12.504Z,63.22
2019-03-29T08:35:18.673Z,61.99
2019-03-29T08:40:24.897Z,64.76
2019-03-29T08:45:30.954Z,63.14
2019-03-29T08:50:38.298Z,63.71
2019-03-29T08:55:45.927Z,64.56
2019-03-29T09:00:52.777Z,63.74
2019-03-29T09:05:58.828Z,64.52
2019-03-29T09:11:07.417Z,63.11
2019-03-29T09:16:11.988Z,64.13
2019-03-29T09:21:17.725Z,61.29
2019-03-29T09:26:23.973Z,61.12
2019-03-29T09:31:29.722Z,61.60
2019-03-29T09:36:35.626Z,61.37
2019-03-29T09:41:41.468Z,61.76
2019-03-29T09:46:47.250Z,60.74
2019-03-29T09:51:53.123Z,60.24
2019-03-29T09:56:59.192Z,61.13
2019-03-29T10:02:04.856Z,62.05
2019-03-29T10:07:10.893Z,59.77
2019-03-29T10:12:17.168Z,58.89
2019-03-29T10:17:22.723Z,58.70
2019-03-29T10:22:28.368Z,58.27
2019-03-29T10:27:34.205Z,56.62
2019-03-29T10:32:40.050Z,55.70
2019-03-29T10:37:47.014Z,55.04
2019-03-29T10:42:58.007Z,53.53
2019-03-29T10:48:01.487Z,52.82
2019-03-29T10:53:07.440Z,53.11
2019-03-29T10:58:13.531Z,53.92
2019-03-29T11:03:20.013Z,50.79
2019-03-29T11:08:25.753Z,52.51
2019-03-29T11:13:31.656Z,50.27
2019-03-29T11:18:37.254Z,48.58
2019-03-29T11:23:43.394Z,50.20
2019-03-29T11:28:50.576Z,50.46
2019-03-29T11:33:56.787Z,51.36
2019-03-29T11:39:02.538Z,50.44
2019-03-29T11:44:10.555Z,50.47
2019-03-29T11:49:17.243Z,50.29
2019-03-29T11:54:23.295Z,49.39
2019-03-29T11:59:29.868Z,50.75
2019-03-29T12:04:35.583Z,50.27
2019-03-29T12:09:41.193Z,49.31
2019-03-29T12:14:46.839Z,50.11
2019-03-29T12:19:52.517Z,49.30
2019-03-29T12:24:59.175Z,49.42
2019-03-29T12:30:08.657Z,48.59
2019-03-29T12:35:14.351Z,49.33
2019-03-29T12:40:21.537Z,48.40
2019-03-29T12:45:28.551Z,47.83
2019-03-29T12:50:34.713Z,48.07
2019-03-29T12:55:40.690Z,47.13
2019-03-29T13:00:46.963Z,47.80
2019-03-29T13:05:52.883Z,47.86
2019-03-29T13:10:59.118Z,47.65
2019-03-29T13:16:05.535Z,47.97
2019-03-29T13:21:11.256Z,46.69
2019-03-29T13:26:18.429Z,47.38
2019-03-29T13:31:24.859Z,47.29
2019-03-29T13:36:30.475Z,47.22
2019-03-29T13:41:36.793Z,48.30
2019-03-29T13:46:42.411Z,48.70
2019-03-29T13:51:49.411Z,49.13
2019-03-29T13:56:55.475Z,48.99
2019-03-29T14:02:01.345Z,48.14
2019-03-29T14:07:07.171Z,46.06
2019-03-29T14:12:15.005Z,46.75
2019-03-29T14:17:23.535Z,47.72
2019-03-29T14:22:29.929Z,47.12
2019-03-29T14:27:35.559Z,47.54
2019-03-29T14:32:42.649Z,48.11
2019-03-29T14:37:48.197Z,48.58
2019-03-29T14:42:54.895Z,48.86
2019-03-29T14:48:01.029Z,47.28
2019-03-29T14:53:07.338Z,47.48
2019-03-29T14:58:13.248Z,47.35
2019-03-29T15:03:19.034Z,47.41
2019-03-29T15:08:24.885Z,48.08
2019-03-29T15:13:30.577Z,47.22
2019-03-29T15:18:38.729Z,46.02
2019-03-29T15:23:44.721Z,47.55
2019-03-29T15:28:51.137Z,47.68
2019-03-29T15:33:57.595Z,47.41
2019-03-29T15:39:03.694Z,46.73
2019-03-29T15:44:10.757Z,45.85
2019-03-29T15:49:16.645Z,47.13
2019-03-29T15:54:22.339Z,47.97
2019-03-29T15:59:28.059Z,46.33
2019-03-29T16:04:33.862Z,48.19
2019-03-29T16:09:39.410Z,47.90
2019-03-29T16:14:45.477Z,48.19
2019-03-29T16:19:51.866Z,46.77
2019-03-29T16:24:59.137Z,46.93
2019-03-29T16:30:07.745Z,48.39
2019-03-29T16:35:13.496Z,48.16
2019-03-29T16:40:19.495Z,47.83
2019-03-29T16:45:25.204Z,46.81
2019-03-29T16:50:31.186Z,48.72
2019-03-29T16:55:36.952Z,48.73
2019-03-29T17:00:43.134Z,49.39
2019-03-29T17:05:49.291Z,48.76
2019-03-29T17:10:54.919Z,48.11
2019-03-29T17:16:02.313Z,47.75
2019-03-29T17:21:09.041Z,47.11
2019-03-29T17:26:15.744Z,47.36
2019-03-29T17:31:22.029Z,47.37
2019-03-29T17:36:28.025Z,47.63
2019-03-29T17:41:35.289Z,47.84
2019-03-29T17:46:41.697Z,47.58
2019-03-29T17:51:47.956Z,48.78
2019-03-29T17:56:53.588Z,48.58
2019-03-29T18:02:09.347Z,48.88
2019-03-29T18:07:08.312Z,48.67
2019-03-29T18:12:15.380Z,48.62
2019-03-29T18:17:21.000Z,48.82
2019-03-29T18:22:27.059Z,48.76
2019-03-29T18:27:35.525Z,49.53
2019-03-29T18:32:42.218Z,49.40
2019-03-29T18:37:47.820Z,49.21
2019-03-29T18:42:55.467Z,49.22
2019-03-29T18:48:01.578Z,49.52
2019-03-29T18:53:07.601Z,49.79
2019-03-29T18:58:13.248Z,49.94
2019-03-29T19:03:19.483Z,49.46
2019-03-29T19:08:27.102Z,49.46
2019-03-29T19:13:32.941Z,49.72
2019-03-29T19:18:38.729Z,49.98
2019-03-29T19:23:44.603Z,50.43
2019-03-29T19:28:50.819Z,50.65
2019-03-29T19:33:58.147Z,50.87
2019-03-29T19:39:06.568Z,51.18
2019-03-29T19:44:14.055Z,51.24
2019-03-29T19:49:21.385Z,51.72
2019-03-29T19:54:28.160Z,51.50
2019-03-29T19:59:34.876Z,51.41
2019-03-29T20:04:40.528Z,51.44
2019-03-29T20:09:48.257Z,52.05
2019-03-29T20:14:56.035Z,52.05
2019-03-29T20:20:05.555Z,52.21
2019-03-29T20:25:11.721Z,52.38
2019-03-29T20:30:20.074Z,52.53
2019-03-29T20:35:28.609Z,52.88
2019-03-29T20:40:36.204Z,53.23
2019-03-29T20:45:43.503Z,53.32
2019-03-29T20:50:49.594Z,53.47
2019-03-29T20:55:58.295Z,53.23
2019-03-29T21:01:03.426Z,53.40
2019-03-29T21:06:10.923Z,53.30
2019-03-29T21:11:17.192Z,53.57
2019-03-29T21:16:23.513Z,53.75
2019-03-29T21:21:30.407Z,54.76
2019-03-29T21:26:36.979Z,54.74
2019-03-29T21:31:44.075Z,55.64
2019-03-29T21:36:50.119Z,55.45
2019-03-29T21:41:57.325Z,55.58
2019-03-29T21:47:02.986Z,55.93
2019-03-29T21:52:09.660Z,55.98
2019-03-29T21:57:15.531Z,56.14
2019-03-29T22:03:28.585Z,55.87
2019-03-29T22:08:35.773Z,55.24
2019-03-29T22:13:41.353Z,56.15
2019-03-29T22:18:47.073Z,56.05
2019-03-29T22:23:52.795Z,56.35
2019-03-29T22:28:58.357Z,56.45
2019-03-29T22:34:05.341Z,56.32
2019-03-29T22:39:11.413Z,56.65
2019-03-29T22:44:18.628Z,56.54
2019-03-29T22:49:24.417Z,56.42
2019-03-29T22:54:29.989Z,56.60
2019-03-29T22:59:35.954Z,56.80
2019-03-29T23:04:41.892Z,57.00
2019-03-29T23:09:47.448Z,56.95
2019-03-29T23:14:53.969Z,56.94
2019-03-29T23:20:01.555Z,56.88
2019-03-29T23:25:07.745Z,56.99
2019-03-29T23:30:13.862Z,57.36
2019-03-29T23:35:19.742Z,57.88
2019-03-29T23:40:25.337Z,57.69
2019-03-29T23:45:30.962Z,57.96
2019-03-29T23:50:36.739Z,57.70
2019-03-29T23:55:42.846Z,58.05
